The Florida Keys Marathon Airport Marathon US
ICAO: KMTH
IATA: MTH
Category: Medium
Scheduled Services: No

Elevation: 5 ft
TransAlt. 18000 ft.

Airport Communications:
ASOS:135.525
MIAMI CNTR:133.5
MIAMI RDO:122.6
CTAF/UNICOM:122.8

KMTH Zoom In..

If you have problems with the map follow the link
https://www.worldairports.se/pages/airport.php?
ICAO=KMTH

Runways:

(A) RW 07 length 5008 ft width 100 ft
---- / hdg 71

(B) RW 25 length 5008 ft width 100 ft
---- / hdg 251

Location; KMTH
Day. 19 / Time. 13.53 Zulu
* Altimeter: 30.07
* Temperature: 27° c. 80.6°f.
* Wind from: 110° Speed 06 kn.
Dewpoint: 22° c.
Visibility: 10 Statute Miles.
Clouds: Few 2600 ft.
Clouds: Broken 8500 ft.

KMTH 191353Z AUTO 11006KT 10SM FEW026 BKN085 27/22 A3007 RMK AO2 SLP183 T02720222


Wind From 110°
Speed 06 kn.

 
 
jpsmedia.com for Web Design worldairports.se 2018   terms of use